createdAt,value
2023-02-01T00:01:32.953Z,4.30
2023-02-01T00:04:01.013Z,4.30
2023-02-01T00:06:29.031Z,4.20
2023-02-01T00:08:57.995Z,4.20
2023-02-01T00:11:26.890Z,4.20
2023-02-01T00:13:54.944Z,4.30
2023-02-01T00:16:26.084Z,4.40
2023-02-01T00:18:59.538Z,4.40
2023-02-01T00:21:27.573Z,4.40
2023-02-01T00:23:55.827Z,4.40
2023-02-01T00:26:29.874Z,4.40
2023-02-01T00:28:58.103Z,4.50
2023-02-01T00:31:29.454Z,4.50
2023-02-01T00:33:58.036Z,4.60
2023-02-01T00:36:26.249Z,4.60
2023-02-01T00:38:54.222Z,4.70
2023-02-01T00:41:23.490Z,4.60
2023-02-01T00:43:53.228Z,4.70
2023-02-01T00:46:22.668Z,4.70
2023-02-01T00:48:52.549Z,4.80
2023-02-01T00:51:22.546Z,4.90
2023-02-01T00:53:50.956Z,4.80
2023-02-01T00:56:19.370Z,4.60
2023-02-01T00:58:47.490Z,4.50
2023-02-01T01:01:17.772Z,4.40
2023-02-01T01:03:48.718Z,4.40
2023-02-01T01:06:19.987Z,4.40
2023-02-01T01:08:48.105Z,4.30
2023-02-01T01:11:18.152Z,4.40
2023-02-01T01:13:48.261Z,4.40
2023-02-01T01:16:16.633Z,4.30
2023-02-01T01:18:45.062Z,4.40
2023-02-01T01:21:15.206Z,4.40
2023-02-01T01:23:45.608Z,4.30
2023-02-01T01:26:17.360Z,4.30
2023-02-01T01:28:45.428Z,4.40
2023-02-01T01:31:15.292Z,4.40
2023-02-01T01:33:44.960Z,4.40
2023-02-01T01:36:14.083Z,4.40
2023-02-01T01:38:44.009Z,4.40
2023-02-01T01:41:17.352Z,4.40
2023-02-01T01:43:54.809Z,4.40
2023-02-01T01:46:25.573Z,4.30
2023-02-01T01:48:59.001Z,4.30
2023-02-01T01:51:30.361Z,4.30
2023-02-01T01:54:04.080Z,4.30
2023-02-01T01:56:36.915Z,4.20
2023-02-01T01:59:06.728Z,4.20
2023-02-01T02:01:34.786Z,4.20
2023-02-01T02:04:03.616Z,4.30
2023-02-01T02:06:42.791Z,4.40
2023-02-01T02:09:10.810Z,4.40
2023-02-01T02:11:40.326Z,4.30
2023-02-01T02:14:12.957Z,4.30
2023-02-01T02:16:56.721Z,4.30
2023-02-01T02:19:51.541Z,4.30
2023-02-01T02:22:42.507Z,4.20
2023-02-01T02:25:36.650Z,4.10
2023-02-01T02:28:17.716Z,4.20
2023-02-01T02:31:02.652Z,4.30
2023-02-01T02:33:59.969Z,4.30
2023-02-01T02:36:40.877Z,4.30
2023-02-01T02:39:16.077Z,4.30
2023-02-01T02:42:13.998Z,4.30
2023-02-01T02:45:08.240Z,4.40
2023-02-01T02:47:43.072Z,4.40
2023-02-01T02:50:38.280Z,4.40
2023-02-01T02:53:30.447Z,4.50
2023-02-01T02:56:16.827Z,4.50
2023-02-01T02:59:03.767Z,4.50
2023-02-01T03:01:50.692Z,4.40
2023-02-01T03:04:19.449Z,4.40
2023-02-01T03:06:49.199Z,4.40
2023-02-01T03:09:24.667Z,4.40
2023-02-01T03:12:15.869Z,4.40
2023-02-01T03:14:49.256Z,4.60
2023-02-01T03:17:22.133Z,4.50
2023-02-01T03:19:52.960Z,4.50
2023-02-01T03:22:25.558Z,4.60
2023-02-01T03:24:56.449Z,4.50
2023-02-01T03:27:29.767Z,4.50
2023-02-01T03:30:03.836Z,4.50
2023-02-01T03:32:52.160Z,4.50
2023-02-01T03:35:22.995Z,4.40
2023-02-01T03:37:54.330Z,4.50
2023-02-01T03:40:22.977Z,4.50
2023-02-01T03:42:56.667Z,4.50
2023-02-01T03:45:29.539Z,4.50
2023-02-01T03:48:01.144Z,4.50
2023-02-01T03:50:30.995Z,4.60
2023-02-01T03:53:04.822Z,4.50
2023-02-01T03:55:33.692Z,4.50
2023-02-01T03:58:08.486Z,4.60
2023-02-01T04:00:36.697Z,4.60
2023-02-01T04:03:05.931Z,4.70
2023-02-01T04:05:33.869Z,4.70
2023-02-01T04:08:03.244Z,4.70
2023-02-01T04:10:31.354Z,4.70
2023-02-01T04:12:59.509Z,4.80
2023-02-01T04:15:27.628Z,4.80
2023-02-01T04:17:55.606Z,4.80
2023-02-01T04:20:23.943Z,4.80
2023-02-01T04:22:52.176Z,4.80
2023-02-01T04:25:21.635Z,4.90
2023-02-01T04:27:49.638Z,4.90
2023-02-01T04:30:18.177Z,4.80
2023-02-01T04:32:46.238Z,4.80
2023-02-01T04:35:14.119Z,4.80
2023-02-01T04:37:42.148Z,4.70
2023-02-01T04:40:11.638Z,4.80
2023-02-01T04:42:41.055Z,4.90
2023-02-01T04:45:10.424Z,4.90
2023-02-01T04:47:38.363Z,4.90
2023-02-01T04:50:08.852Z,4.90
2023-02-01T04:52:36.886Z,5.00
2023-02-01T04:55:05.654Z,5.00
2023-02-01T04:57:33.560Z,5.00
2023-02-01T05:00:04.227Z,5.00
2023-02-01T05:02:33.286Z,5.00
2023-02-01T05:05:01.236Z,5.00
2023-02-01T05:07:29.356Z,5.00
2023-02-01T05:09:57.428Z,5.00
2023-02-01T05:12:42.738Z,5.00
2023-02-01T05:15:12.533Z,5.00
2023-02-01T05:17:41.149Z,5.00
2023-02-01T05:20:10.619Z,5.00
2023-02-01T05:22:38.561Z,5.00
2023-02-01T05:25:08.415Z,5.00
2023-02-01T05:27:36.936Z,4.90
2023-02-01T05:30:06.368Z,4.90
2023-02-01T05:32:35.862Z,5.00
2023-02-01T05:35:04.009Z,4.90
2023-02-01T05:37:31.834Z,5.00
2023-02-01T05:39:59.956Z,5.00
2023-02-01T05:42:27.862Z,5.00
2023-02-01T05:44:55.775Z,5.00
2023-02-01T05:47:23.754Z,5.10
2023-02-01T05:49:53.233Z,5.20
2023-02-01T05:52:21.217Z,5.20
2023-02-01T05:54:49.128Z,5.10
2023-02-01T05:57:17.553Z,5.00
2023-02-01T05:59:46.617Z,5.00
2023-02-01T06:02:15.126Z,5.00
2023-02-01T06:04:43.277Z,4.90
2023-02-01T06:07:15.863Z,5.00
2023-02-01T06:09:43.994Z,5.00
2023-02-01T06:12:12.425Z,5.10
2023-02-01T06:14:41.556Z,5.10
2023-02-01T06:17:09.661Z,5.10
2023-02-01T06:19:37.629Z,5.00
2023-02-01T06:22:07.301Z,5.00
2023-02-01T06:24:37.362Z,5.00
2023-02-01T06:27:05.489Z,4.90
2023-02-01T06:29:33.396Z,5.00
2023-02-01T06:32:01.704Z,5.00
2023-02-01T06:34:29.935Z,5.00
2023-02-01T06:36:58.103Z,5.00
2023-02-01T06:39:26.252Z,4.90
2023-02-01T06:41:55.604Z,5.00
2023-02-01T06:44:23.744Z,5.00
2023-02-01T06:46:51.991Z,5.00
2023-02-01T06:49:20.899Z,5.00
2023-02-01T06:51:50.205Z,5.10
2023-02-01T06:54:22.621Z,5.10
2023-02-01T06:56:50.956Z,5.10
2023-02-01T06:59:20.207Z,5.00
2023-02-01T07:01:48.963Z,5.00
2023-02-01T07:04:17.177Z,5.10
2023-02-01T07:06:47.881Z,5.00
2023-02-01T07:09:15.842Z,5.10
2023-02-01T07:11:45.362Z,5.00
2023-02-01T07:14:13.906Z,5.10
2023-02-01T07:16:43.270Z,5.10
2023-02-01T07:19:11.293Z,5.10
2023-02-01T07:21:39.410Z,5.00
2023-02-01T07:24:08.291Z,5.10
2023-02-01T07:26:36.287Z,5.20
2023-02-01T07:29:04.344Z,5.20
2023-02-01T07:31:32.351Z,5.20
2023-02-01T07:34:03.586Z,5.10
2023-02-01T07:36:31.510Z,5.10
2023-02-01T07:39:00.648Z,5.00
2023-02-01T07:41:28.576Z,4.90
2023-02-01T07:43:57.786Z,4.80
2023-02-01T07:46:26.453Z,4.80
2023-02-01T07:48:54.611Z,4.70
2023-02-01T07:51:23.920Z,4.70
2023-02-01T07:53:51.988Z,4.70
2023-02-01T07:56:23.762Z,4.60
2023-02-01T07:59:02.922Z,4.50
2023-02-01T08:01:31.511Z,4.40
2023-02-01T08:04:09.947Z,4.30
2023-02-01T08:06:39.900Z,4.20
2023-02-01T08:09:09.848Z,4.20
2023-02-01T08:11:38.893Z,4.20
2023-02-01T08:14:09.060Z,4.30
2023-02-01T08:16:38.800Z,4.30
2023-02-01T08:19:07.056Z,4.20
2023-02-01T08:21:38.250Z,4.20
2023-02-01T08:24:10.322Z,4.20
2023-02-01T08:26:38.566Z,4.20
2023-02-01T08:29:08.664Z,4.20
2023-02-01T08:31:36.725Z,4.30
2023-02-01T08:34:05.764Z,4.30
2023-02-01T08:36:34.704Z,4.30
2023-02-01T08:39:06.658Z,4.30
2023-02-01T08:41:36.328Z,4.30
2023-02-01T08:44:04.652Z,4.20
2023-02-01T08:46:32.801Z,4.20
2023-02-01T08:49:01.799Z,4.20
2023-02-01T08:51:30.119Z,4.10
2023-02-01T08:53:58.261Z,4.10
2023-02-01T08:56:26.253Z,4.10
2023-02-01T08:58:55.769Z,4.10
2023-02-01T09:01:23.806Z,4.10
2023-02-01T09:03:52.400Z,4.20
2023-02-01T09:06:20.462Z,4.30
2023-02-01T09:08:48.509Z,4.20
2023-02-01T09:11:22.056Z,4.20
2023-02-01T09:13:50.639Z,4.20
2023-02-01T09:16:21.061Z,4.20
2023-02-01T09:18:56.110Z,4.20
2023-02-01T09:21:36.070Z,4.30
2023-02-01T09:24:05.146Z,4.30
2023-02-01T09:26:33.573Z,4.20
2023-02-01T09:29:02.564Z,4.20
2023-02-01T09:31:32.461Z,4.20
2023-02-01T09:34:00.861Z,4.20
2023-02-01T09:36:31.117Z,4.20
2023-02-01T09:38:59.465Z,4.20
2023-02-01T09:41:41.798Z,4.20
2023-02-01T09:44:22.320Z,4.20
2023-02-01T09:46:57.210Z,4.20
2023-02-01T09:49:30.550Z,4.20
2023-02-01T09:51:59.182Z,4.20
2023-02-01T09:54:30.805Z,4.20
2023-02-01T09:57:03.947Z,4.20
2023-02-01T09:59:40.511Z,4.20
2023-02-01T10:02:15.463Z,4.10
2023-02-01T10:04:43.632Z,4.30
2023-02-01T10:07:22.760Z,4.30
2023-02-01T10:10:00.422Z,4.40
2023-02-01T10:12:55.228Z,4.40
2023-02-01T10:15:54.206Z,4.50
2023-02-01T10:18:44.348Z,4.60
2023-02-01T10:21:21.157Z,4.80
2023-02-01T10:24:23.740Z,5.00
2023-02-01T10:26:58.018Z,5.00
2023-02-01T10:29:34.399Z,5.00
2023-02-01T10:32:03.759Z,5.00
2023-02-01T10:34:37.142Z,5.00
2023-02-01T10:37:20.561Z,5.00
2023-02-01T10:39:50.371Z,5.10
2023-02-01T10:42:19.870Z,5.20
2023-02-01T10:44:49.222Z,5.40
2023-02-01T10:47:17.459Z,5.60
2023-02-01T10:49:59.061Z,5.70
2023-02-01T10:52:38.749Z,5.80
2023-02-01T10:55:30.696Z,5.90
2023-02-01T10:58:01.123Z,5.90
2023-02-01T11:00:30.048Z,6.00
2023-02-01T11:02:58.219Z,6.20
2023-02-01T11:05:27.742Z,6.30
2023-02-01T11:07:57.256Z,6.40
2023-02-01T11:10:39.777Z,6.50
2023-02-01T11:13:16.982Z,6.50
2023-02-01T11:15:46.877Z,6.50
2023-02-01T11:18:22.553Z,6.50
2023-02-01T11:20:53.155Z,6.50
2023-02-01T11:23:24.947Z,6.50
2023-02-01T11:25:55.773Z,6.50
2023-02-01T11:28:27.167Z,6.50
2023-02-01T11:30:58.475Z,6.40
2023-02-01T11:33:32.901Z,6.50
2023-02-01T11:36:07.744Z,6.50
2023-02-01T11:38:36.604Z,6.50
2023-02-01T11:41:15.709Z,6.50
2023-02-01T11:43:56.088Z,6.50
2023-02-01T11:46:29.122Z,6.50
2023-02-01T11:48:59.467Z,6.50
2023-02-01T11:51:46.808Z,6.60
2023-02-01T11:54:30.087Z,6.70
2023-02-01T11:57:13.139Z,6.70
2023-02-01T12:00:00.872Z,6.80
2023-02-01T12:02:56.431Z,6.80
2023-02-01T12:05:38.776Z,6.90
2023-02-01T12:08:33.487Z,6.90
2023-02-01T12:11:24.110Z,7.00
2023-02-01T12:14:08.029Z,7.10
2023-02-01T12:16:53.594Z,7.00
2023-02-01T12:19:42.732Z,7.00
2023-02-01T12:22:24.562Z,6.90
2023-02-01T12:25:17.393Z,7.00
2023-02-01T12:28:03.196Z,7.00
2023-02-01T12:30:53.485Z,7.00
2023-02-01T12:33:33.859Z,7.00
2023-02-01T12:36:14.875Z,7.00
2023-02-01T12:38:53.271Z,7.00
2023-02-01T12:41:48.151Z,7.00
2023-02-01T12:44:29.164Z,6.90
2023-02-01T12:47:01.722Z,6.80
2023-02-01T12:49:40.050Z,6.70
2023-02-01T12:52:14.115Z,6.60
2023-02-01T12:54:47.697Z,6.60
2023-02-01T12:57:24.470Z,6.50
2023-02-01T12:59:58.636Z,6.50
2023-02-01T13:02:36.967Z,6.40
2023-02-01T13:05:16.717Z,6.40
2023-02-01T13:07:51.835Z,6.50
2023-02-01T13:10:26.472Z,6.50
2023-02-01T13:13:01.498Z,6.50
2023-02-01T13:15:33.703Z,6.50
2023-02-01T13:18:06.781Z,6.40
2023-02-01T13:20:37.856Z,6.40
2023-02-01T13:23:10.667Z,6.60
2023-02-01T13:25:45.944Z,6.60
2023-02-01T13:28:19.761Z,6.70
2023-02-01T13:31:02.976Z,6.70
2023-02-01T13:33:52.683Z,6.80
2023-02-01T13:36:56.506Z,6.80
2023-02-01T13:39:48.911Z,6.80
2023-02-01T13:42:20.925Z,6.80
2023-02-01T13:44:55.815Z,6.80
2023-02-01T13:47:28.308Z,6.80
2023-02-01T13:49:59.538Z,6.80
2023-02-01T13:52:31.684Z,6.80
2023-02-01T13:55:31.644Z,6.70
2023-02-01T13:58:07.555Z,6.70
2023-02-01T14:00:38.878Z,6.70
2023-02-01T14:03:21.227Z,6.50
2023-02-01T14:06:36.507Z,6.60
2023-02-01T14:09:17.703Z,6.50
2023-02-01T14:11:51.433Z,6.60
2023-02-01T14:14:52.594Z,6.50
2023-02-01T14:17:44.306Z,6.60
2023-02-01T14:20:55.961Z,6.50
2023-02-01T14:23:42.424Z,6.50
2023-02-01T14:26:20.452Z,6.40
2023-02-01T14:28:54.412Z,6.50
2023-02-01T14:31:44.339Z,6.40
2023-02-01T14:34:20.997Z,6.40
2023-02-01T14:36:54.048Z,6.40
2023-02-01T14:39:50.434Z,6.40
2023-02-01T14:42:27.978Z,6.40
2023-02-01T14:44:59.051Z,6.40
2023-02-01T14:47:31.745Z,6.40
2023-02-01T14:50:37.515Z,6.40
2023-02-01T14:53:25.684Z,6.30
2023-02-01T14:55:59.746Z,6.10
2023-02-01T14:58:38.259Z,6.00
2023-02-01T15:01:08.962Z,5.80
2023-02-01T15:03:47.796Z,5.50
2023-02-01T15:06:26.541Z,5.40
2023-02-01T15:08:59.689Z,5.30
2023-02-01T15:11:28.075Z,5.20
2023-02-01T15:13:57.573Z,4.90
2023-02-01T15:16:27.296Z,5.00
2023-02-01T15:19:13.042Z,4.90
2023-02-01T15:21:48.409Z,4.80
2023-02-01T15:24:21.436Z,4.80
2023-02-01T15:26:49.611Z,4.70
2023-02-01T15:29:18.222Z,4.70
2023-02-01T15:31:51.072Z,4.60
2023-02-01T15:34:20.139Z,4.60
2023-02-01T15:37:02.385Z,4.50
2023-02-01T15:39:32.654Z,4.50
2023-02-01T15:42:11.082Z,4.40
2023-02-01T15:44:42.597Z,4.20
2023-02-01T15:47:16.785Z,4.40
2023-02-01T15:49:47.931Z,4.40
2023-02-01T15:52:34.391Z,4.40
2023-02-01T15:55:04.218Z,4.50
2023-02-01T15:57:36.003Z,4.60
2023-02-01T16:00:07.729Z,4.60
2023-02-01T16:02:38.951Z,4.60
2023-02-01T16:05:27.134Z,4.50
2023-02-01T16:08:05.287Z,4.60
2023-02-01T16:10:47.120Z,4.60
2023-02-01T16:13:16.917Z,4.50
2023-02-01T16:15:47.382Z,4.30
2023-02-01T16:18:18.468Z,4.00
2023-02-01T16:20:49.377Z,3.60
2023-02-01T16:23:20.410Z,3.30
2023-02-01T16:25:48.837Z,3.20
2023-02-01T16:28:17.011Z,3.20
2023-02-01T16:30:45.015Z,2.90
2023-02-01T16:33:21.490Z,2.80
2023-02-01T16:35:50.343Z,2.80
2023-02-01T16:38:25.601Z,2.80
2023-02-01T16:40:54.196Z,2.70
2023-02-01T16:43:23.689Z,2.70
2023-02-01T16:46:01.466Z,2.70
2023-02-01T16:48:31.858Z,2.60
2023-02-01T16:51:03.635Z,2.70
2023-02-01T16:53:41.725Z,2.80
2023-02-01T16:56:19.041Z,2.90
2023-02-01T16:58:50.831Z,2.90
2023-02-01T17:01:20.977Z,3.00
2023-02-01T17:03:50.897Z,3.00
2023-02-01T17:06:21.154Z,3.10
2023-02-01T17:08:53.524Z,3.20
2023-02-01T17:11:21.592Z,3.20
2023-02-01T17:13:50.320Z,3.20
2023-02-01T17:16:26.458Z,3.30
2023-02-01T17:19:00.385Z,3.30
2023-02-01T17:21:30.977Z,3.30
2023-02-01T17:24:01.350Z,3.30
2023-02-01T17:26:30.542Z,3.40
2023-02-01T17:28:59.023Z,3.40
2023-02-01T17:31:27.183Z,3.40
2023-02-01T17:33:57.359Z,3.40
2023-02-01T17:36:26.191Z,3.40
2023-02-01T17:39:05.382Z,3.40
2023-02-01T17:41:38.218Z,3.40
2023-02-01T17:44:06.689Z,3.50
2023-02-01T17:46:34.689Z,3.50
2023-02-01T17:49:03.818Z,3.60
2023-02-01T17:51:32.548Z,3.60
2023-02-01T17:54:00.544Z,3.70
2023-02-01T17:56:29.775Z,3.70
2023-02-01T17:59:01.208Z,3.70
2023-02-01T18:01:29.233Z,3.70
2023-02-01T18:03:57.379Z,3.70
2023-02-01T18:06:27.578Z,3.70
2023-02-01T18:08:56.347Z,3.70
2023-02-01T18:11:26.078Z,3.60
2023-02-01T18:13:55.514Z,3.70
2023-02-01T18:16:27.034Z,3.80
2023-02-01T18:18:57.720Z,3.80
2023-02-01T18:21:26.471Z,3.80
2023-02-01T18:23:54.484Z,3.80
2023-02-01T18:26:22.511Z,3.80
2023-02-01T18:28:50.577Z,3.80
2023-02-01T18:31:23.200Z,3.70
2023-02-01T18:33:54.133Z,3.70
2023-02-01T18:36:22.557Z,3.80
2023-02-01T18:38:50.907Z,3.80
2023-02-01T18:41:21.741Z,3.80
2023-02-01T18:43:50.325Z,3.70
2023-02-01T18:46:21.683Z,3.90
2023-02-01T18:48:49.948Z,3.90
2023-02-01T18:51:21.304Z,3.80
2023-02-01T18:53:49.598Z,3.80
2023-02-01T18:56:19.014Z,3.80
2023-02-01T18:58:48.571Z,3.80
2023-02-01T19:01:19.402Z,3.70
2023-02-01T19:03:49.498Z,3.80
2023-02-01T19:06:22.986Z,3.90
2023-02-01T19:08:51.244Z,3.90
2023-02-01T19:11:20.056Z,3.90
2023-02-01T19:13:51.647Z,3.90
2023-02-01T19:16:19.669Z,3.90
2023-02-01T19:18:52.077Z,3.90
2023-02-01T19:21:20.312Z,3.90
2023-02-01T19:23:49.775Z,3.90
2023-02-01T19:26:19.432Z,3.90
2023-02-01T19:28:48.875Z,3.80
2023-02-01T19:31:17.831Z,3.80
2023-02-01T19:33:46.262Z,3.70
2023-02-01T19:36:14.179Z,3.70
2023-02-01T19:38:42.265Z,3.70
2023-02-01T19:41:11.626Z,3.70
2023-02-01T19:43:39.969Z,3.70
2023-02-01T19:46:07.901Z,3.70
2023-02-01T19:48:35.976Z,3.70
2023-02-01T19:51:04.637Z,3.80
2023-02-01T19:53:32.593Z,3.80
2023-02-01T19:56:01.732Z,3.80
2023-02-01T19:58:31.130Z,3.80
2023-02-01T20:00:59.710Z,3.80
2023-02-01T20:03:28.903Z,3.70
2023-02-01T20:05:58.354Z,3.60
2023-02-01T20:08:26.964Z,3.50
2023-02-01T20:10:55.015Z,3.60
2023-02-01T20:13:23.035Z,3.50
2023-02-01T20:16:02.423Z,3.60
2023-02-01T20:18:31.313Z,3.60
2023-02-01T20:21:00.433Z,3.60
2023-02-01T20:23:31.113Z,3.50
2023-02-01T20:26:03.970Z,3.50
2023-02-01T20:28:34.387Z,3.50
2023-02-01T20:31:04.254Z,3.40
2023-02-01T20:33:35.727Z,3.40
2023-02-01T20:36:04.239Z,3.40
2023-02-01T20:38:32.419Z,3.40
2023-02-01T20:41:04.546Z,3.40
2023-02-01T20:43:32.558Z,3.40
2023-02-01T20:46:02.550Z,3.40
2023-02-01T20:48:33.655Z,3.40
2023-02-01T20:51:01.852Z,3.40
2023-02-01T20:53:30.692Z,3.40
2023-02-01T20:56:00.180Z,3.40
2023-02-01T20:58:28.629Z,3.40
2023-02-01T21:00:56.643Z,3.30
2023-02-01T21:03:24.687Z,3.30
2023-02-01T21:05:56.289Z,3.30
2023-02-01T21:08:24.776Z,3.10
2023-02-01T21:11:00.957Z,3.10
2023-02-01T21:13:31.411Z,3.20
2023-02-01T21:15:59.948Z,3.10
2023-02-01T21:18:27.940Z,3.10
2023-02-01T21:20:58.397Z,3.10
2023-02-01T21:23:26.336Z,3.10
2023-02-01T21:25:54.256Z,3.10
2023-02-01T21:28:22.224Z,3.10
2023-02-01T21:30:50.133Z,3.10
2023-02-01T21:33:18.002Z,3.00
2023-02-01T21:35:45.797Z,2.90
2023-02-01T21:38:15.209Z,3.00
2023-02-01T21:40:43.635Z,3.00
2023-02-01T21:43:10.542Z,3.00
2023-02-01T21:45:43.567Z,3.00
2023-02-01T21:48:11.651Z,3.00
2023-02-01T21:50:39.601Z,2.90
2023-02-01T21:53:07.602Z,3.00
2023-02-01T21:55:36.944Z,2.90
2023-02-01T21:58:12.457Z,2.90
2023-02-01T22:00:40.469Z,3.00
2023-02-01T22:03:08.390Z,2.90
2023-02-01T22:05:36.618Z,2.90
2023-02-01T22:08:04.921Z,3.00
2023-02-01T22:10:32.870Z,3.10
2023-02-01T22:13:02.152Z,3.00
2023-02-01T22:15:30.356Z,3.00
2023-02-01T22:17:58.235Z,3.00
2023-02-01T22:20:28.042Z,3.00
2023-02-01T22:22:56.594Z,2.80
2023-02-01T22:25:25.446Z,2.90
2023-02-01T22:28:31.663Z,3.00
2023-02-01T22:30:43.839Z,3.00
2023-02-01T22:33:13.209Z,3.10
2023-02-01T22:35:41.051Z,3.10
2023-02-01T22:38:08.855Z,3.10
2023-02-01T22:40:36.780Z,3.10
2023-02-01T22:43:04.587Z,3.10
2023-02-01T22:45:32.521Z,3.20
2023-02-01T22:48:01.781Z,3.30
2023-02-01T22:50:29.712Z,3.40
2023-02-01T22:52:57.587Z,3.40
2023-02-01T22:55:25.821Z,3.40
2023-02-01T22:57:53.796Z,3.50
2023-02-01T23:00:24.832Z,3.60
2023-02-01T23:02:52.825Z,3.60
2023-02-01T23:05:23.184Z,3.60
2023-02-01T23:07:51.671Z,3.50
2023-02-01T23:10:21.627Z,3.50
2023-02-01T23:12:49.708Z,3.50
2023-02-01T23:15:18.303Z,3.50
2023-02-01T23:17:46.754Z,3.60
2023-02-01T23:20:16.903Z,3.70
2023-02-01T23:22:47.838Z,3.80
2023-02-01T23:25:17.789Z,3.70
2023-02-01T23:27:47.341Z,3.70
2023-02-01T23:30:16.742Z,3.70
2023-02-01T23:32:44.878Z,3.70
2023-02-01T23:35:12.701Z,3.70
2023-02-01T23:37:40.780Z,3.70
2023-02-01T23:40:11.976Z,3.70
2023-02-01T23:42:40.041Z,3.70
2023-02-01T23:45:07.716Z,3.80
2023-02-01T23:47:35.669Z,3.80
2023-02-01T23:50:03.625Z,3.80
2023-02-01T23:52:31.534Z,3.90
2023-02-01T23:54:59.494Z,3.90
2023-02-01T23:57:28.702Z,4.00
2023-02-01T23:59:56.548Z,4.10
